createdAt,value
2023-03-11T00:00:25.427Z,13.23
2023-03-11T00:02:55.636Z,13.20
2023-03-11T00:05:27.527Z,12.87
2023-03-11T00:07:56.434Z,12.27
2023-03-11T00:10:29.873Z,12.50
2023-03-11T00:12:58.889Z,12.77
2023-03-11T00:15:27.125Z,13.30
2023-03-11T00:17:55.725Z,13.87
2023-03-11T00:20:28.503Z,13.57
2023-03-11T00:22:57.541Z,13.20
2023-03-11T00:25:28.886Z,14.27
2023-03-11T00:27:57.242Z,13.67
2023-03-11T00:30:26.045Z,14.17
2023-03-11T00:32:57.092Z,13.03
2023-03-11T00:35:29.160Z,13.70
2023-03-11T00:37:59.495Z,14.17
2023-03-11T00:40:30.731Z,14.10
2023-03-11T00:42:59.233Z,14.00
2023-03-11T00:45:28.334Z,14.30
2023-03-11T00:47:57.332Z,14.17
2023-03-11T00:50:29.673Z,14.53
2023-03-11T00:52:58.718Z,14.37
2023-03-11T00:55:29.254Z,15.23
2023-03-11T00:58:00.213Z,15.23
2023-03-11T01:00:33.482Z,15.40
2023-03-11T01:03:04.352Z,15.80
2023-03-11T01:05:35.546Z,15.10
2023-03-11T01:08:04.954Z,15.00
2023-03-11T01:10:34.579Z,15.57
2023-03-11T01:13:03.127Z,14.93
2023-03-11T01:15:33.384Z,14.43
2023-03-11T01:18:01.895Z,15.10
2023-03-11T01:20:30.593Z,14.80
2023-03-11T01:23:00.131Z,14.83
2023-03-11T01:25:29.719Z,14.70
2023-03-11T01:27:59.463Z,14.30
2023-03-11T01:30:29.527Z,12.90
2023-03-11T01:32:58.605Z,13.17
2023-03-11T01:35:29.362Z,12.70
2023-03-11T01:37:59.421Z,12.17
2023-03-11T01:40:32.210Z,11.70
2023-03-11T01:43:06.849Z,11.03
2023-03-11T01:45:43.279Z,10.53
2023-03-11T01:48:13.446Z,9.80
2023-03-11T01:50:45.277Z,7.70
2023-03-11T01:53:16.743Z,7.43
2023-03-11T01:55:46.671Z,6.60
2023-03-11T01:58:20.034Z,6.23
2023-03-11T02:00:48.649Z,6.00
2023-03-11T02:03:23.223Z,5.17
2023-03-11T02:05:53.998Z,4.67
2023-03-11T02:08:23.858Z,4.23
2023-03-11T02:10:54.377Z,4.07
2023-03-11T02:13:22.608Z,4.10
2023-03-11T02:15:51.111Z,3.60
2023-03-11T02:18:21.243Z,3.87
2023-03-11T02:20:58.381Z,4.00
2023-03-11T02:23:35.094Z,4.07
2023-03-11T02:26:09.493Z,3.50
2023-03-11T02:28:41.554Z,3.10
2023-03-11T02:31:09.925Z,2.80
2023-03-11T02:33:38.548Z,2.60
2023-03-11T02:36:07.670Z,2.60
2023-03-11T02:38:36.748Z,2.20
2023-03-11T02:41:07.171Z,2.10
2023-03-11T02:43:38.657Z,1.97
2023-03-11T02:46:11.956Z,1.90
2023-03-11T02:48:40.368Z,2.10
2023-03-11T02:51:08.852Z,1.83
2023-03-11T02:53:43.786Z,1.90
2023-03-11T02:56:12.101Z,1.80
2023-03-11T02:58:40.164Z,1.80
2023-03-11T03:01:11.965Z,1.80
2023-03-11T03:03:42.612Z,1.63
2023-03-11T03:06:11.529Z,1.60
2023-03-11T03:08:39.638Z,1.30
2023-03-11T03:11:08.116Z,1.30
2023-03-11T03:13:36.425Z,1.50
2023-03-11T03:16:05.004Z,1.30
2023-03-11T03:18:35.282Z,1.37
2023-03-11T03:21:03.413Z,1.10
2023-03-11T03:23:35.185Z,1.17
2023-03-11T03:26:03.486Z,1.37
2023-03-11T03:28:32.583Z,1.20
2023-03-11T03:31:05.694Z,1.30
2023-03-11T03:33:35.466Z,1.30
2023-03-11T03:36:08.353Z,1.30
2023-03-11T03:38:41.215Z,1.40
2023-03-11T03:41:10.201Z,1.40
2023-03-11T03:43:41.423Z,1.70
2023-03-11T03:46:10.228Z,1.60
2023-03-11T03:48:46.699Z,1.80
2023-03-11T03:51:15.655Z,1.77
2023-03-11T03:53:55.975Z,1.70
2023-03-11T03:56:26.127Z,1.60
2023-03-11T03:58:54.753Z,1.53
2023-03-11T04:01:25.248Z,1.70
2023-03-11T04:03:54.928Z,1.90
2023-03-11T04:06:25.106Z,1.80
2023-03-11T04:09:00.610Z,2.00
2023-03-11T04:11:33.315Z,1.77
2023-03-11T04:14:03.257Z,1.97
2023-03-11T04:16:33.625Z,1.70
2023-03-11T04:19:08.110Z,1.80
2023-03-11T04:21:37.140Z,1.80
2023-03-11T04:24:05.962Z,1.50
2023-03-11T04:26:37.056Z,1.73
2023-03-11T04:29:07.466Z,1.60
2023-03-11T04:31:41.096Z,1.90
2023-03-11T04:34:11.575Z,1.90
2023-03-11T04:36:40.970Z,1.80
2023-03-11T04:39:10.637Z,2.10
2023-03-11T04:41:43.041Z,2.13
2023-03-11T04:44:14.602Z,2.00
2023-03-11T04:46:43.001Z,2.17
2023-03-11T04:49:13.165Z,1.97
2023-03-11T04:51:41.582Z,2.00
2023-03-11T04:54:10.091Z,1.97
2023-03-11T04:56:38.246Z,2.20
2023-03-11T04:59:07.784Z,2.27
2023-03-11T05:01:38.294Z,2.20
2023-03-11T05:04:09.472Z,2.07
2023-03-11T05:06:39.041Z,2.10
2023-03-11T05:09:07.906Z,2.13
2023-03-11T05:11:38.966Z,2.00
2023-03-11T05:14:07.333Z,2.03
2023-03-11T05:16:35.812Z,2.10
2023-03-11T05:19:25.939Z,2.50
2023-03-11T05:21:55.729Z,2.77
2023-03-11T05:24:26.705Z,2.83
2023-03-11T05:26:55.681Z,3.30
2023-03-11T05:29:24.977Z,4.07
2023-03-11T05:31:54.844Z,4.90
2023-03-11T05:34:23.445Z,5.17
2023-03-11T05:36:51.840Z,6.30
2023-03-11T05:39:21.464Z,7.07
2023-03-11T05:41:49.669Z,7.37
2023-03-11T05:44:17.780Z,8.17
2023-03-11T05:46:45.899Z,8.60
2023-03-11T05:49:14.028Z,9.00
2023-03-11T05:51:42.512Z,9.90
2023-03-11T05:54:15.210Z,10.40
2023-03-11T05:56:49.018Z,11.30
2023-03-11T05:59:18.750Z,11.70
2023-03-11T06:01:53.489Z,12.13
2023-03-11T06:04:22.688Z,12.00
2023-03-11T06:06:50.992Z,12.47
2023-03-11T06:09:21.696Z,12.47
2023-03-11T06:11:51.482Z,11.53
2023-03-11T06:14:21.668Z,11.13
2023-03-11T06:16:51.869Z,10.50
2023-03-11T06:19:21.669Z,11.00
2023-03-11T06:21:52.186Z,11.20
2023-03-11T06:24:20.419Z,11.57
2023-03-11T06:26:53.817Z,11.80
2023-03-11T06:29:26.670Z,12.30
2023-03-11T06:31:55.918Z,11.93
2023-03-11T06:34:24.796Z,13.10
2023-03-11T06:36:54.898Z,13.17
2023-03-11T06:39:23.171Z,12.40
2023-03-11T06:41:54.217Z,11.80
2023-03-11T06:44:22.368Z,11.10
2023-03-11T06:46:50.455Z,11.47
2023-03-11T06:49:19.332Z,11.37
2023-03-11T06:51:47.400Z,11.47
2023-03-11T06:54:16.512Z,12.07
2023-03-11T06:56:44.841Z,12.93
2023-03-11T06:59:15.857Z,12.90
2023-03-11T07:01:43.937Z,14.40
2023-03-11T07:04:12.382Z,15.20
2023-03-11T07:06:43.571Z,16.37
2023-03-11T07:09:19.306Z,16.87
2023-03-11T07:11:47.734Z,16.50
2023-03-11T07:14:23.300Z,17.10
2023-03-11T07:16:55.201Z,17.60
2023-03-11T07:19:29.571Z,18.80
2023-03-11T07:21:57.695Z,18.20
2023-03-11T07:24:25.810Z,18.40
2023-03-11T07:26:53.912Z,17.80
2023-03-11T07:29:23.338Z,17.33
2023-03-11T07:31:51.498Z,15.47
2023-03-11T07:34:19.655Z,15.80
2023-03-11T07:36:47.817Z,15.50
2023-03-11T07:39:18.027Z,15.23
2023-03-11T07:41:46.836Z,15.40
2023-03-11T07:44:16.871Z,15.70
2023-03-11T07:46:47.078Z,15.20
2023-03-11T07:49:15.258Z,14.43
2023-03-11T07:51:44.088Z,13.47
2023-03-11T07:54:13.224Z,11.10
2023-03-11T07:56:41.361Z,10.07
2023-03-11T07:59:09.571Z,9.07
2023-03-11T08:01:40.681Z,8.90
2023-03-11T08:04:14.530Z,8.90
2023-03-11T08:06:43.870Z,8.00
2023-03-11T08:09:12.206Z,8.03
2023-03-11T08:11:40.797Z,7.60
2023-03-11T08:14:09.050Z,8.10
2023-03-11T08:16:37.282Z,6.93
2023-03-11T08:19:05.352Z,6.77
2023-03-11T08:21:34.876Z,7.20
2023-03-11T08:24:06.555Z,7.40
2023-03-11T08:26:35.028Z,6.87
2023-03-11T08:29:03.075Z,6.30
2023-03-11T08:31:33.726Z,6.33
2023-03-11T08:34:03.724Z,7.00
2023-03-11T08:36:32.744Z,6.60
2023-03-11T08:39:03.517Z,6.93
2023-03-11T08:41:31.858Z,7.00
2023-03-11T08:44:00.126Z,6.90
2023-03-11T08:46:30.760Z,6.87
2023-03-11T08:49:01.201Z,7.10
2023-03-11T08:51:30.530Z,6.33
2023-03-11T08:53:58.618Z,6.30
2023-03-11T08:56:29.053Z,6.00
2023-03-11T08:58:57.405Z,6.07
2023-03-11T09:01:25.736Z,6.63
2023-03-11T09:03:53.946Z,7.03
2023-03-11T09:06:22.649Z,7.03
2023-03-11T09:08:51.166Z,7.33
2023-03-11T09:11:22.079Z,7.73
2023-03-11T09:13:51.942Z,7.60
2023-03-11T09:16:25.577Z,7.90
2023-03-11T09:18:53.650Z,7.27
2023-03-11T09:21:21.809Z,7.53
2023-03-11T09:23:50.072Z,7.30
2023-03-11T09:28:49.301Z,7.17
2023-03-11T09:31:19.793Z,7.13
2023-03-11T09:33:48.523Z,7.50
2023-03-11T09:36:18.679Z,6.90
2023-03-11T09:38:47.903Z,6.50
2023-03-11T09:41:27.240Z,7.27
2023-03-11T09:44:06.409Z,7.47
2023-03-11T09:47:07.679Z,6.83
2023-03-11T09:49:48.639Z,7.03
2023-03-11T09:52:20.374Z,6.80
2023-03-11T09:54:52.292Z,7.70
2023-03-11T09:57:24.313Z,7.50
2023-03-11T09:59:52.946Z,7.37
2023-03-11T10:02:26.749Z,6.90
2023-03-11T10:04:59.962Z,6.70
2023-03-11T10:07:34.990Z,5.80
2023-03-11T10:10:03.863Z,5.10
2023-03-11T10:12:46.064Z,5.23
2023-03-11T10:15:20.930Z,5.57
2023-03-11T10:18:13.351Z,6.40
2023-03-11T10:20:52.207Z,6.37
2023-03-11T10:23:27.293Z,6.50
2023-03-11T10:26:04.151Z,5.17
2023-03-11T10:28:36.838Z,6.00
2023-03-11T10:31:19.089Z,7.40
2023-03-11T10:33:51.968Z,8.00
2023-03-11T10:36:24.616Z,8.30
2023-03-11T10:38:55.049Z,9.30
2023-03-11T10:41:31.240Z,10.03
2023-03-11T10:44:05.318Z,11.00
2023-03-11T10:46:33.438Z,11.30
2023-03-11T10:49:02.869Z,11.53
2023-03-11T10:51:35.755Z,11.97
2023-03-11T10:54:04.994Z,12.80
2023-03-11T10:56:36.030Z,13.00
2023-03-11T10:59:06.329Z,13.67
2023-03-11T11:01:34.700Z,14.00
2023-03-11T11:04:04.698Z,14.20
2023-03-11T11:06:34.512Z,15.00
2023-03-11T11:09:11.867Z,16.70
2023-03-11T11:11:40.293Z,17.30
2023-03-11T11:14:09.528Z,17.80
2023-03-11T11:16:38.114Z,19.40
2023-03-11T11:19:11.911Z,19.77
2023-03-11T11:21:43.386Z,20.80
2023-03-11T11:24:25.763Z,21.23
2023-03-11T11:27:08.401Z,21.83
2023-03-11T11:29:36.750Z,22.80
2023-03-11T11:32:21.632Z,23.27
2023-03-11T11:35:00.676Z,23.87
2023-03-11T11:37:32.444Z,24.90
2023-03-11T11:40:11.203Z,24.87
2023-03-11T11:42:41.618Z,27.20
2023-03-11T11:45:17.436Z,28.47
2023-03-11T11:47:49.899Z,28.83
2023-03-11T11:50:27.406Z,29.67
2023-03-11T11:53:04.191Z,30.83
2023-03-11T11:55:34.250Z,29.73
2023-03-11T11:58:02.385Z,29.93
2023-03-11T12:00:39.767Z,31.00
2023-03-11T12:03:25.596Z,30.83
2023-03-11T12:05:59.073Z,32.23
2023-03-11T12:08:35.179Z,33.10
2023-03-11T12:11:05.769Z,32.27
2023-03-11T12:14:00.290Z,32.60
2023-03-11T12:16:39.637Z,34.17
2023-03-11T12:19:19.151Z,34.07
2023-03-11T12:22:17.553Z,34.27
2023-03-11T12:25:09.713Z,35.43
2023-03-11T12:27:45.595Z,34.80
2023-03-11T12:30:18.344Z,34.17
2023-03-11T12:32:50.354Z,34.20
2023-03-11T12:35:26.430Z,35.37
2023-03-11T12:38:06.940Z,34.37
2023-03-11T12:41:00.030Z,33.23
2023-03-11T12:43:44.347Z,32.57
2023-03-11T12:46:14.378Z,30.80
2023-03-11T12:48:46.738Z,30.07
2023-03-11T12:51:41.775Z,30.23
2023-03-11T12:54:31.031Z,29.80
2023-03-11T12:57:00.640Z,29.50
2023-03-11T13:00:07.829Z,30.60
2023-03-11T13:02:58.014Z,30.27
2023-03-11T13:05:32.443Z,30.37
2023-03-11T13:08:05.190Z,30.43
2023-03-11T13:10:40.706Z,30.30
2023-03-11T13:13:38.053Z,30.20
2023-03-11T13:16:38.654Z,29.23
2023-03-11T13:19:43.403Z,26.73
2023-03-11T13:22:44.269Z,23.13
2023-03-11T13:25:32.946Z,22.10
2023-03-11T13:28:29.213Z,21.83
2023-03-11T13:31:06.450Z,21.57
2023-03-11T13:33:46.525Z,21.23
2023-03-11T13:36:31.171Z,21.67
2023-03-11T13:39:26.928Z,23.00
2023-03-11T13:41:56.299Z,24.10
2023-03-11T13:44:30.705Z,23.87
2023-03-11T13:47:04.994Z,23.47
2023-03-11T13:49:39.492Z,24.13
2023-03-11T13:52:11.461Z,23.33
2023-03-11T13:54:44.869Z,22.10
2023-03-11T13:57:26.706Z,22.23
2023-03-11T13:59:57.593Z,22.13
2023-03-11T14:02:27.947Z,22.10
2023-03-11T14:04:59.698Z,22.20
2023-03-11T14:07:30.926Z,22.30
2023-03-11T14:10:21.261Z,22.40
2023-03-11T14:12:50.031Z,23.60
2023-03-11T14:15:24.429Z,24.43
2023-03-11T14:17:54.264Z,26.67
2023-03-11T14:20:25.561Z,28.37
2023-03-11T14:22:56.104Z,29.33
2023-03-11T14:25:27.324Z,29.00
2023-03-11T14:27:58.144Z,27.30
2023-03-11T14:30:29.724Z,24.63
2023-03-11T14:33:00.943Z,24.40
2023-03-11T14:35:29.553Z,24.47
2023-03-11T14:37:59.118Z,23.77
2023-03-11T14:40:30.807Z,22.53
2023-03-11T14:43:02.408Z,21.00
2023-03-11T14:45:34.636Z,21.53
2023-03-11T14:48:08.291Z,17.50
2023-03-11T14:50:36.987Z,14.97
2023-03-11T14:53:10.072Z,13.70
2023-03-11T14:55:43.219Z,12.60
2023-03-11T14:58:16.453Z,13.00
2023-03-11T15:00:50.532Z,12.97
2023-03-11T15:03:24.554Z,13.33
2023-03-11T15:05:56.362Z,14.27
2023-03-11T15:08:28.243Z,14.77
2023-03-11T15:11:09.097Z,16.40
2023-03-11T15:13:38.594Z,15.67
2023-03-11T15:16:22.761Z,16.23
2023-03-11T15:18:51.003Z,16.30
2023-03-11T15:21:20.975Z,16.07
2023-03-11T15:23:50.957Z,15.60
2023-03-11T15:26:22.624Z,15.33
2023-03-11T15:28:59.393Z,14.83
2023-03-11T15:31:35.552Z,15.17
2023-03-11T15:34:27.267Z,14.50
2023-03-11T15:37:21.368Z,15.33
2023-03-11T15:39:53.215Z,16.23
2023-03-11T15:42:25.740Z,16.30
2023-03-11T15:45:05.824Z,16.30
2023-03-11T15:47:36.238Z,16.83
2023-03-11T15:50:24.163Z,17.80
2023-03-11T15:52:54.427Z,18.10
2023-03-11T15:55:22.908Z,18.37
2023-03-11T15:57:55.141Z,18.10
2023-03-11T16:00:24.907Z,18.63
2023-03-11T16:02:54.857Z,18.90
2023-03-11T16:05:25.112Z,20.40
2023-03-11T16:07:53.257Z,20.53
2023-03-11T16:10:22.844Z,21.57
2023-03-11T16:12:51.051Z,22.03
2023-03-11T16:15:28.515Z,22.93
2023-03-11T16:17:59.505Z,24.27
2023-03-11T16:20:30.104Z,24.70
2023-03-11T16:22:59.766Z,26.13
2023-03-11T16:25:30.375Z,27.50
2023-03-11T16:27:59.005Z,27.77
2023-03-11T16:30:28.591Z,28.50
2023-03-11T16:32:58.440Z,28.93
2023-03-11T16:35:27.526Z,29.53
2023-03-11T16:37:55.730Z,30.30
2023-03-11T16:40:27.318Z,30.67
2023-03-11T16:42:58.075Z,30.63
2023-03-11T16:45:26.353Z,30.27
2023-03-11T16:47:54.468Z,30.60
2023-03-11T16:50:24.998Z,29.70
2023-03-11T16:52:53.569Z,29.43
2023-03-11T16:55:22.207Z,29.80
2023-03-11T16:57:50.325Z,29.73
2023-03-11T17:00:19.302Z,28.43
2023-03-11T17:02:47.741Z,26.47
2023-03-11T17:05:15.858Z,25.90
2023-03-11T17:07:45.402Z,26.37
2023-03-11T17:10:13.915Z,24.87
2023-03-11T17:12:42.032Z,25.23
2023-03-11T17:15:10.619Z,24.27
2023-03-11T17:17:38.679Z,24.77
2023-03-11T17:20:08.757Z,23.37
2023-03-11T17:22:37.166Z,22.63
2023-03-11T17:25:07.867Z,22.47
2023-03-11T17:27:36.391Z,22.53
2023-03-11T17:30:07.177Z,23.27
2023-03-11T17:32:35.515Z,22.73
2023-03-11T17:35:03.616Z,21.40
2023-03-11T17:37:33.308Z,20.73
2023-03-11T17:40:01.430Z,20.57
2023-03-11T17:42:30.992Z,20.17
2023-03-11T17:44:59.492Z,20.60
2023-03-11T17:47:27.644Z,18.97
2023-03-11T17:49:55.720Z,19.33
2023-03-11T17:52:23.838Z,18.40
2023-03-11T17:54:53.557Z,19.03
2023-03-11T17:57:21.725Z,19.20
2023-03-11T17:59:53.688Z,19.50
2023-03-11T18:02:22.281Z,20.40
2023-03-11T18:04:53.988Z,18.97
2023-03-11T18:07:23.803Z,19.57
2023-03-11T18:09:53.116Z,20.20
2023-03-11T18:12:21.959Z,18.77
2023-03-11T18:14:50.158Z,18.93
2023-03-11T18:17:21.165Z,19.10
2023-03-11T18:19:49.258Z,19.40
2023-03-11T18:22:17.308Z,18.50
2023-03-11T18:24:45.701Z,17.03
2023-03-11T18:27:13.745Z,16.07
2023-03-11T18:29:42.221Z,14.40
2023-03-11T18:32:10.508Z,15.40
2023-03-11T18:34:40.529Z,14.63
2023-03-11T18:37:08.750Z,14.00
2023-03-11T18:39:36.811Z,13.37
2023-03-11T18:42:05.853Z,12.70
2023-03-11T18:44:36.495Z,12.10
2023-03-11T18:47:05.092Z,12.23
2023-03-11T18:49:33.237Z,11.90
2023-03-11T18:52:02.826Z,12.33
2023-03-11T18:54:30.840Z,11.90
2023-03-11T18:56:58.954Z,11.93
2023-03-11T18:59:28.352Z,12.93
2023-03-11T19:01:56.477Z,12.60
2023-03-11T19:04:24.539Z,12.57
2023-03-11T19:06:52.661Z,13.70
2023-03-11T19:09:22.145Z,13.70
2023-03-11T19:11:50.243Z,12.83
2023-03-11T19:14:18.328Z,13.43
2023-03-11T19:16:46.479Z,12.77
2023-03-11T19:19:14.615Z,13.07
2023-03-11T19:21:42.765Z,13.90
2023-03-11T19:24:10.967Z,14.13
2023-03-11T19:26:45.269Z,14.33
2023-03-11T19:29:14.150Z,16.13
2023-03-11T19:31:43.639Z,17.33
2023-03-11T19:34:11.988Z,19.33
2023-03-11T19:36:40.411Z,21.00
2023-03-11T19:39:08.906Z,21.47
2023-03-11T19:41:37.231Z,21.70
2023-03-11T19:44:06.789Z,21.17
2023-03-11T19:46:36.600Z,21.17
2023-03-11T19:49:05.441Z,21.13
2023-03-11T19:51:48.609Z,21.07
2023-03-11T19:54:18.296Z,19.60
2023-03-11T19:56:46.511Z,18.30
2023-03-11T19:59:16.083Z,17.30
2023-03-11T20:01:44.234Z,17.27
2023-03-11T20:04:12.686Z,15.50
2023-03-11T20:06:41.045Z,15.70
2023-03-11T20:09:09.148Z,15.20
2023-03-11T20:11:39.951Z,14.87
2023-03-11T20:14:08.861Z,13.93
2023-03-11T20:16:38.467Z,13.60
2023-03-11T20:19:06.688Z,13.40
2023-03-11T20:21:39.060Z,14.10
2023-03-11T20:24:08.246Z,13.57
2023-03-11T20:26:36.639Z,13.07
2023-03-11T20:29:05.505Z,12.60
2023-03-11T20:31:33.815Z,12.70
2023-03-11T20:34:03.451Z,13.10
2023-03-11T20:36:34.011Z,12.70
2023-03-11T20:39:02.852Z,12.73
2023-03-11T20:41:37.463Z,12.67
2023-03-11T20:44:07.065Z,13.60
2023-03-11T20:46:35.774Z,13.73
2023-03-11T20:49:05.437Z,13.90
2023-03-11T20:51:33.688Z,14.17
2023-03-11T20:54:01.852Z,14.93
2023-03-11T20:56:30.186Z,15.50
2023-03-11T20:59:01.035Z,15.87
2023-03-11T21:01:31.070Z,16.50
2023-03-11T21:04:01.690Z,16.47
2023-03-11T21:06:34.292Z,16.67
2023-03-11T21:09:05.825Z,17.67
2023-03-11T21:11:34.713Z,17.90
2023-03-11T21:14:02.919Z,18.63
2023-03-11T21:16:31.165Z,20.03
2023-03-11T21:19:01.518Z,19.50
2023-03-11T21:21:31.243Z,19.70
2023-03-11T21:23:59.392Z,19.90
2023-03-11T21:26:27.794Z,19.87
2023-03-11T21:28:56.024Z,19.43
2023-03-11T21:31:29.072Z,19.47
2023-03-11T21:33:59.299Z,19.10
2023-03-11T21:36:27.907Z,19.40
2023-03-11T21:38:57.487Z,19.63
2023-03-11T21:41:27.398Z,19.07
2023-03-11T21:43:57.603Z,19.87
2023-03-11T21:46:28.401Z,20.03
2023-03-11T21:48:57.095Z,20.53
2023-03-11T21:51:26.195Z,20.47
2023-03-11T21:53:54.458Z,20.67
2023-03-11T21:56:24.184Z,21.73
2023-03-11T21:58:53.895Z,21.80
2023-03-11T22:01:22.340Z,22.77
2023-03-11T22:03:50.953Z,22.33
2023-03-11T22:06:19.196Z,22.43
2023-03-11T22:08:47.267Z,22.50
2023-03-11T22:11:19.463Z,22.77
2023-03-11T22:13:51.324Z,23.03
2023-03-11T22:16:20.404Z,23.07
2023-03-11T22:18:49.037Z,22.80
2023-03-11T22:21:20.674Z,23.87
2023-03-11T22:23:49.497Z,22.23
2023-03-11T22:26:17.731Z,22.60
2023-03-11T22:28:45.802Z,22.07
2023-03-11T22:31:18.639Z,21.73
2023-03-11T22:33:47.341Z,22.23
2023-03-11T22:36:15.599Z,21.37
2023-03-11T22:38:45.134Z,21.60
2023-03-11T22:41:16.853Z,21.07
2023-03-11T22:43:45.003Z,21.07
2023-03-11T22:46:13.053Z,20.17
2023-03-11T22:48:42.761Z,20.47
2023-03-11T22:51:11.210Z,20.63
2023-03-11T22:53:39.510Z,21.10
2023-03-11T22:56:09.608Z,20.87
2023-03-11T22:58:37.822Z,20.03
2023-03-11T23:01:06.079Z,20.93
2023-03-11T23:03:35.161Z,20.20
2023-03-11T23:06:07.694Z,20.57
2023-03-11T23:08:36.869Z,20.03
2023-03-11T23:11:06.718Z,20.00
2023-03-11T23:13:36.209Z,19.27
2023-03-11T23:16:07.364Z,18.37
2023-03-11T23:18:36.000Z,18.67
2023-03-11T23:21:05.892Z,18.07
2023-03-11T23:23:33.980Z,17.10
2023-03-11T23:26:02.016Z,17.00
2023-03-11T23:28:30.204Z,16.20
2023-03-11T23:30:58.271Z,16.63
2023-03-11T23:33:26.480Z,15.80
2023-03-11T23:35:54.632Z,15.70
2023-03-11T23:38:24.187Z,15.43
2023-03-11T23:40:52.374Z,16.20
2023-03-11T23:43:23.618Z,15.40
2023-03-11T23:45:52.286Z,15.57
2023-03-11T23:48:20.356Z,15.60
2023-03-11T23:50:49.240Z,15.97
2023-03-11T23:53:21.397Z,16.27
2023-03-11T23:55:51.671Z,16.37
2023-03-11T23:58:20.365Z,17.80
